createdAt,value
2019-02-27T00:00:30.533Z,967.9
2019-02-27T00:01:30.519Z,967.92
2019-02-27T00:02:30.502Z,967.87
2019-02-27T00:03:30.479Z,967.93
2019-02-27T00:04:34.598Z,967.91
2019-02-27T00:05:30.447Z,967.89
2019-02-27T00:06:30.428Z,967.89
2019-02-27T00:07:30.409Z,967.87
2019-02-27T00:08:30.391Z,967.83
2019-02-27T00:09:32.639Z,967.92
2019-02-27T00:10:30.356Z,967.9
2019-02-27T00:11:30.339Z,967.91
2019-02-27T00:12:30.322Z,967.95
2019-02-27T00:13:30.302Z,967.92
2019-02-27T00:14:31.155Z,967.91
2019-02-27T00:15:30.266Z,967.89
2019-02-27T00:16:30.284Z,967.84
2019-02-27T00:17:30.234Z,967.85
2019-02-27T00:18:30.215Z,967.84
2019-02-27T00:19:31.352Z,967.81
2019-02-27T00:20:30.181Z,967.84
2019-02-27T00:21:30.164Z,967.82
2019-02-27T00:22:30.145Z,967.83
2019-02-27T00:23:30.126Z,967.8
2019-02-27T00:24:30.591Z,967.78
2019-02-27T00:25:30.091Z,967.82
2019-02-27T00:26:30.074Z,967.79
2019-02-27T00:27:30.056Z,967.82
2019-02-27T00:28:30.038Z,967.82
2019-02-27T00:29:30.020Z,967.81
2019-02-27T00:30:30.002Z,967.82
2019-02-27T00:31:29.985Z,967.82
2019-02-27T00:32:29.968Z,967.81
2019-02-27T00:33:29.949Z,967.83
2019-02-27T00:34:32.772Z,967.78
2019-02-27T00:35:29.914Z,967.75
2019-02-27T00:36:29.907Z,967.74
2019-02-27T00:37:29.878Z,967.7
2019-02-27T00:38:29.861Z,967.71
2019-02-27T00:39:31.212Z,967.73
2019-02-27T00:40:29.824Z,967.7
2019-02-27T00:41:29.814Z,967.72
2019-02-27T00:42:33.431Z,967.72
2019-02-27T00:43:29.772Z,967.76
2019-02-27T00:44:33.695Z,967.74
2019-02-27T00:45:29.735Z,967.67
2019-02-27T00:46:29.718Z,967.68
2019-02-27T00:47:29.702Z,967.63
2019-02-27T00:48:29.682Z,967.66
2019-02-27T00:49:29.802Z,967.58
2019-02-27T00:50:29.648Z,967.61
2019-02-27T00:51:29.629Z,967.64
2019-02-27T00:52:29.633Z,967.62
2019-02-27T00:53:29.594Z,967.66
2019-02-27T00:54:31.347Z,967.66
2019-02-27T00:55:29.557Z,967.61
2019-02-27T00:56:29.540Z,967.59
2019-02-27T00:57:29.523Z,967.61
2019-02-27T00:58:29.505Z,967.55
2019-02-27T00:59:32.851Z,967.6
2019-02-27T01:00:29.469Z,967.56
2019-02-27T01:01:29.458Z,967.58
2019-02-27T01:02:29.433Z,967.57
2019-02-27T01:03:29.414Z,967.58
2019-02-27T01:04:29.398Z,967.6
2019-02-27T01:05:29.383Z,967.63
2019-02-27T01:06:29.361Z,967.58
2019-02-27T01:07:29.343Z,967.6
2019-02-27T01:08:29.328Z,967.55
2019-02-27T01:09:29.306Z,967.6
2019-02-27T01:10:29.289Z,967.55
2019-02-27T01:11:29.286Z,967.58
2019-02-27T01:12:29.253Z,967.55
2019-02-27T01:13:31.248Z,967.52
2019-02-27T01:14:29.226Z,967.52
2019-02-27T01:15:29.199Z,967.52
2019-02-27T01:16:29.182Z,967.48
2019-02-27T01:17:29.163Z,967.5
2019-02-27T01:18:30.664Z,967.46
2019-02-27T01:19:29.129Z,967.49
2019-02-27T01:20:29.108Z,967.47
2019-02-27T01:21:29.091Z,967.48
2019-02-27T01:22:29.073Z,967.46
2019-02-27T01:23:29.056Z,967.45
2019-02-27T01:24:29.036Z,967.42
2019-02-27T01:25:29.019Z,967.4
2019-02-27T01:26:30.791Z,967.42
2019-02-27T01:27:28.981Z,967.4
2019-02-27T01:28:28.963Z,967.39
2019-02-27T01:29:28.945Z,967.39
2019-02-27T01:30:28.929Z,967.4
2019-02-27T01:31:28.910Z,967.44
2019-02-27T01:32:31.112Z,967.36
2019-02-27T01:33:28.873Z,967.37
2019-02-27T01:34:28.856Z,967.35
2019-02-27T01:35:28.839Z,967.32
2019-02-27T01:36:28.821Z,967.31
2019-02-27T01:37:31.587Z,967.35
2019-02-27T01:38:28.783Z,967.34
2019-02-27T01:39:28.765Z,967.37
2019-02-27T01:40:28.748Z,967.35
2019-02-27T01:41:28.738Z,967.35
2019-02-27T01:42:31.852Z,967.32
2019-02-27T01:43:28.693Z,967.33
2019-02-27T01:44:28.676Z,967.31
2019-02-27T01:45:28.658Z,967.29
2019-02-27T01:46:28.648Z,967.29
2019-02-27T01:47:28.620Z,967.3
2019-02-27T01:48:28.604Z,967.3
2019-02-27T01:49:28.590Z,967.3
2019-02-27T01:50:28.611Z,967.27
2019-02-27T01:51:28.904Z,967.28
2019-02-27T01:52:28.530Z,967.27
2019-02-27T01:53:28.511Z,967.28
2019-02-27T01:54:28.494Z,967.25
2019-02-27T01:55:28.476Z,967.28
2019-02-27T01:56:29.068Z,967.26
2019-02-27T01:57:28.439Z,967.2
2019-02-27T01:58:28.424Z,967.14
2019-02-27T01:59:28.402Z,967.16
2019-02-27T02:00:28.385Z,967.17
2019-02-27T02:01:30.131Z,967.16
2019-02-27T02:02:28.349Z,967.14
2019-02-27T02:03:28.331Z,967.16
2019-02-27T02:04:28.312Z,967.1
2019-02-27T02:05:28.294Z,967.1
2019-02-27T02:06:31.915Z,967.12
2019-02-27T02:07:28.257Z,967.07
2019-02-27T02:08:28.239Z,967.05
2019-02-27T02:09:28.225Z,967.02
2019-02-27T02:10:28.837Z,966.99
2019-02-27T02:11:28.183Z,966.98
2019-02-27T02:12:28.167Z,966.95
2019-02-27T02:13:28.148Z,966.96
2019-02-27T02:14:28.130Z,966.92
2019-02-27T02:15:28.111Z,966.96
2019-02-27T02:16:28.093Z,966.94
2019-02-27T02:17:28.075Z,966.92
2019-02-27T02:18:28.060Z,966.92
2019-02-27T02:19:28.039Z,966.93
2019-02-27T02:20:28.025Z,966.89
2019-02-27T02:21:28.003Z,966.86
2019-02-27T02:22:27.984Z,966.86
2019-02-27T02:23:27.966Z,966.89
2019-02-27T02:24:27.948Z,966.87
2019-02-27T02:25:28.583Z,966.86
2019-02-27T02:26:27.911Z,966.86
2019-02-27T02:27:27.894Z,966.87
2019-02-27T02:28:27.889Z,966.86
2019-02-27T02:29:27.855Z,966.9
2019-02-27T02:30:29.705Z,966.87
2019-02-27T02:31:27.820Z,966.79
2019-02-27T02:32:27.802Z,966.79
2019-02-27T02:33:30.150Z,966.8
2019-02-27T02:34:27.764Z,966.78
2019-02-27T02:35:27.745Z,966.78
2019-02-27T02:36:27.728Z,966.8
2019-02-27T02:37:27.710Z,966.77
2019-02-27T02:38:27.691Z,966.81
2019-02-27T02:39:27.676Z,966.77
2019-02-27T02:40:30.766Z,966.76
2019-02-27T02:41:27.636Z,966.75
2019-02-27T02:42:27.617Z,966.72
2019-02-27T02:43:27.601Z,966.69
2019-02-27T02:44:27.581Z,966.71
2019-02-27T02:45:32.699Z,966.71
2019-02-27T02:46:27.544Z,966.69
2019-02-27T02:47:27.526Z,966.66
2019-02-27T02:48:27.793Z,966.66
2019-02-27T02:49:27.489Z,966.66
2019-02-27T02:50:27.476Z,966.64
2019-02-27T02:51:28.966Z,966.6
2019-02-27T02:52:27.433Z,966.6
2019-02-27T02:53:27.416Z,966.61
2019-02-27T02:54:27.397Z,966.6
2019-02-27T02:55:27.379Z,966.57
2019-02-27T02:56:27.360Z,966.57
2019-02-27T02:57:27.343Z,966.57
2019-02-27T02:58:27.325Z,966.52
2019-02-27T02:59:27.305Z,966.53
2019-02-27T03:00:27.288Z,966.52
2019-02-27T03:01:27.267Z,966.49
2019-02-27T03:02:29.634Z,966.49
2019-02-27T03:03:27.232Z,966.48
2019-02-27T03:04:27.214Z,966.45
2019-02-27T03:05:27.196Z,966.42
2019-02-27T03:06:27.176Z,966.44
2019-02-27T03:07:27.164Z,966.37
2019-02-27T03:08:27.140Z,966.38
2019-02-27T03:09:30.596Z,966.35
2019-02-27T03:10:27.104Z,966.34
2019-02-27T03:11:27.088Z,966.41
2019-02-27T03:12:30.919Z,966.39
2019-02-27T03:13:27.049Z,966.4
2019-02-27T03:14:27.030Z,966.41
2019-02-27T03:15:28.758Z,966.36
2019-02-27T03:16:26.995Z,966.3
2019-02-27T03:17:26.975Z,966.31
2019-02-27T03:18:29.468Z,966.31
2019-02-27T03:19:26.939Z,966.26
2019-02-27T03:20:26.925Z,966.28
2019-02-27T03:21:28.489Z,966.31
2019-02-27T03:22:26.883Z,966.35
2019-02-27T03:23:26.873Z,966.4
2019-02-27T03:24:28.208Z,966.37
2019-02-27T03:25:26.830Z,966.36
2019-02-27T03:26:26.811Z,966.35
2019-02-27T03:27:30.492Z,966.33
2019-02-27T03:28:26.774Z,966.28
2019-02-27T03:29:26.758Z,966.3
2019-02-27T03:30:28.745Z,966.32
2019-02-27T03:31:26.721Z,966.29
2019-02-27T03:32:26.713Z,966.31
2019-02-27T03:33:27.314Z,966.29
2019-02-27T03:34:26.665Z,966.28
2019-02-27T03:35:29.055Z,966.28
2019-02-27T03:36:26.628Z,966.3
2019-02-27T03:37:26.616Z,966.35
2019-02-27T03:38:26.592Z,966.31
2019-02-27T03:39:26.574Z,966.31
2019-02-27T03:40:26.554Z,966.31
2019-02-27T03:41:26.535Z,966.3
2019-02-27T03:42:26.518Z,966.3
2019-02-27T03:43:26.507Z,966.27
2019-02-27T03:44:26.492Z,966.25
2019-02-27T03:45:30.586Z,966.23
2019-02-27T03:46:26.443Z,966.26
2019-02-27T03:47:26.432Z,966.23
2019-02-27T03:48:27.710Z,966.24
2019-02-27T03:49:26.389Z,966.29
2019-02-27T03:50:26.370Z,966.26
2019-02-27T03:51:26.364Z,966.28
2019-02-27T03:52:26.335Z,966.29
2019-02-27T03:53:26.315Z,966.25
2019-02-27T03:54:26.303Z,966.23
2019-02-27T03:55:31.475Z,966.24
2019-02-27T03:56:26.260Z,966.23
2019-02-27T03:57:26.242Z,966.19
2019-02-27T03:58:26.765Z,966.21
2019-02-27T03:59:26.218Z,966.2
2019-02-27T04:00:26.188Z,966.2
2019-02-27T04:01:29.984Z,966.24
2019-02-27T04:02:26.150Z,966.24
2019-02-27T04:03:26.132Z,966.24
2019-02-27T04:04:29.374Z,966.21
2019-02-27T04:05:26.096Z,966.21
2019-02-27T04:06:26.078Z,966.2
2019-02-27T04:07:31.448Z,966.18
2019-02-27T04:08:26.039Z,966.17
2019-02-27T04:09:26.027Z,966.19
2019-02-27T04:10:30.750Z,966.18
2019-02-27T04:11:25.985Z,966.15
2019-02-27T04:12:25.967Z,966.18
2019-02-27T04:13:27.630Z,966.16
2019-02-27T04:14:25.932Z,966.17
2019-02-27T04:15:25.912Z,966.1
2019-02-27T04:16:29.252Z,966.1
2019-02-27T04:17:25.885Z,966.09
2019-02-27T04:18:28.350Z,966.12
2019-02-27T04:19:25.837Z,966.06
2019-02-27T04:20:25.819Z,966.05
2019-02-27T04:21:26.073Z,966.09
2019-02-27T04:22:25.781Z,966.05
2019-02-27T04:23:25.761Z,966.07
2019-02-27T04:24:25.743Z,966.07
2019-02-27T04:25:30.975Z,966.03
2019-02-27T04:26:25.706Z,966.04
2019-02-27T04:27:25.687Z,966.04
2019-02-27T04:28:29.463Z,966.08
2019-02-27T04:29:25.652Z,966.12
2019-02-27T04:30:25.635Z,966.1
2019-02-27T04:31:29.424Z,966.07
2019-02-27T04:32:25.594Z,966.09
2019-02-27T04:33:25.726Z,966.06
2019-02-27T04:34:25.557Z,966.13
2019-02-27T04:35:25.539Z,966.08
2019-02-27T04:36:25.521Z,966.11
2019-02-27T04:37:25.502Z,966.16
2019-02-27T04:38:27.501Z,966.08
2019-02-27T04:39:25.466Z,966.15
2019-02-27T04:40:25.447Z,966.14
2019-02-27T04:41:25.427Z,966.1
2019-02-27T04:42:25.653Z,966.11
2019-02-27T04:43:25.397Z,966.12
2019-02-27T04:44:25.371Z,966.12
2019-02-27T04:45:25.351Z,966.1
2019-02-27T04:46:25.333Z,966.14
2019-02-27T04:47:28.648Z,966.11
2019-02-27T04:48:26.992Z,966.13
2019-02-27T04:49:25.278Z,966.13
2019-02-27T04:50:25.260Z,966.12
2019-02-27T04:51:25.242Z,966.13
2019-02-27T04:52:25.222Z,966.13
2019-02-27T04:53:25.202Z,966.15
2019-02-27T04:54:25.186Z,966.13
2019-02-27T04:55:25.167Z,966.12
2019-02-27T04:56:25.150Z,966.15
2019-02-27T04:57:25.129Z,966.12
2019-02-27T04:58:25.111Z,966.12
2019-02-27T04:59:25.090Z,966.11
2019-02-27T05:00:26.217Z,966.13
2019-02-27T05:01:25.054Z,966.13
2019-02-27T05:02:25.035Z,966.16
2019-02-27T05:03:25.758Z,966.13
2019-02-27T05:04:24.998Z,966.13
2019-02-27T05:05:24.981Z,966.17
2019-02-27T05:06:24.962Z,966.17
2019-02-27T05:07:24.941Z,966.17
2019-02-27T05:08:27.108Z,966.15
2019-02-27T05:09:24.905Z,966.16
2019-02-27T05:10:24.887Z,966.17
2019-02-27T05:11:26.862Z,966.12
2019-02-27T05:12:24.851Z,966.14
2019-02-27T05:13:24.832Z,966.13
2019-02-27T05:14:27.333Z,966.17
2019-02-27T05:15:24.794Z,966.14
2019-02-27T05:16:24.774Z,966.19
2019-02-27T05:17:24.759Z,966.17
2019-02-27T05:18:29.227Z,966.17
2019-02-27T05:19:24.720Z,966.19
2019-02-27T05:20:24.701Z,966.25
2019-02-27T05:21:24.682Z,966.26
2019-02-27T05:22:26.736Z,966.3
2019-02-27T05:23:24.645Z,966.27
2019-02-27T05:24:24.627Z,966.22
2019-02-27T05:25:24.607Z,966.22
2019-02-27T05:26:27.015Z,966.21
2019-02-27T05:27:24.570Z,966.22
2019-02-27T05:28:24.550Z,966.24
2019-02-27T05:29:24.534Z,966.26
2019-02-27T05:30:24.515Z,966.22
2019-02-27T05:31:24.495Z,966.26
2019-02-27T05:32:25.224Z,966.25
2019-02-27T05:33:24.477Z,966.24
2019-02-27T05:34:24.463Z,966.21
2019-02-27T05:35:24.470Z,966.25
2019-02-27T05:36:24.402Z,966.21
2019-02-27T05:37:24.384Z,966.19
2019-02-27T05:38:24.366Z,966.21
2019-02-27T05:39:24.397Z,966.18
2019-02-27T05:40:25.917Z,966.18
2019-02-27T05:41:24.309Z,966.16
2019-02-27T05:42:24.291Z,966.18
2019-02-27T05:43:24.272Z,966.16
2019-02-27T05:44:24.254Z,966.17
2019-02-27T05:45:24.242Z,966.16
2019-02-27T05:46:24.216Z,966.17
2019-02-27T05:47:24.196Z,966.23
2019-02-27T05:48:24.180Z,966.19
2019-02-27T05:49:26.462Z,966.17
2019-02-27T05:50:24.143Z,966.18
2019-02-27T05:51:24.124Z,966.21
2019-02-27T05:52:24.105Z,966.21
2019-02-27T05:53:24.090Z,966.17
2019-02-27T05:54:24.069Z,966.18
2019-02-27T05:55:24.049Z,966.16
2019-02-27T05:56:24.031Z,966.14
2019-02-27T05:57:24.012Z,966.11
2019-02-27T05:58:23.995Z,966.14
2019-02-27T05:59:23.975Z,966.13
2019-02-27T06:00:23.958Z,966.13
2019-02-27T06:01:23.938Z,966.13
2019-02-27T06:02:25.491Z,966.14
2019-02-27T06:03:23.900Z,966.19
2019-02-27T06:04:25.097Z,966.12
2019-02-27T06:05:23.863Z,966.11
2019-02-27T06:06:23.846Z,966.11
2019-02-27T06:07:23.826Z,966.13
2019-02-27T06:08:23.808Z,966.12
2019-02-27T06:09:23.791Z,966.11
2019-02-27T06:10:23.825Z,966.09
2019-02-27T06:11:23.752Z,966.1
2019-02-27T06:12:23.733Z,966.07
2019-02-27T06:13:23.715Z,966.04
2019-02-27T06:14:23.698Z,966
2019-02-27T06:15:25.976Z,965.98
2019-02-27T06:16:23.660Z,965.99
2019-02-27T06:17:23.664Z,965.96
2019-02-27T06:18:23.812Z,965.95
2019-02-27T06:19:23.604Z,965.93
2019-02-27T06:20:23.586Z,965.97
2019-02-27T06:21:23.568Z,965.97
2019-02-27T06:22:23.550Z,965.95
2019-02-27T06:23:23.533Z,965.95
2019-02-27T06:24:23.511Z,965.9
2019-02-27T06:25:23.982Z,965.91
2019-02-27T06:26:23.476Z,965.92
2019-02-27T06:27:23.455Z,965.93
2019-02-27T06:28:23.438Z,965.95
2019-02-27T06:29:24.151Z,965.92
2019-02-27T06:30:23.402Z,965.94
2019-02-27T06:31:23.383Z,965.89
2019-02-27T06:32:23.365Z,965.88
2019-02-27T06:33:23.346Z,965.87
2019-02-27T06:34:24.822Z,965.91
2019-02-27T06:35:23.310Z,965.87
2019-02-27T06:36:23.309Z,965.85
2019-02-27T06:37:23.291Z,965.87
2019-02-27T06:38:25.327Z,965.84
2019-02-27T06:39:23.309Z,965.83
2019-02-27T06:40:23.295Z,965.83
2019-02-27T06:41:23.272Z,965.84
2019-02-27T06:42:23.343Z,965.81
2019-02-27T06:43:27.132Z,965.85
2019-02-27T06:44:23.275Z,965.83
2019-02-27T06:45:23.312Z,965.84
2019-02-27T06:46:23.292Z,965.86
2019-02-27T06:47:23.274Z,965.79
2019-02-27T06:48:23.315Z,965.8
2019-02-27T06:49:23.294Z,965.8
2019-02-27T06:50:25.442Z,965.8
2019-02-27T06:51:23.313Z,965.78
2019-02-27T06:52:23.295Z,965.77
2019-02-27T06:53:23.294Z,965.71
2019-02-27T06:54:23.319Z,965.75
2019-02-27T06:55:25.374Z,965.73
2019-02-27T06:56:23.277Z,965.74
2019-02-27T06:57:23.317Z,965.72
2019-02-27T06:58:23.297Z,965.73
2019-02-27T06:59:25.128Z,965.74
2019-02-27T07:00:23.325Z,965.75
2019-02-27T07:01:23.300Z,965.75
2019-02-27T07:02:23.283Z,965.75
2019-02-27T07:03:23.320Z,965.72
2019-02-27T07:04:23.306Z,965.69
2019-02-27T07:05:23.285Z,965.71
2019-02-27T07:06:23.323Z,965.69
2019-02-27T07:07:23.305Z,965.74
2019-02-27T07:08:23.288Z,965.76
2019-02-27T07:09:23.269Z,965.73
2019-02-27T07:10:23.251Z,965.7
2019-02-27T07:11:23.235Z,965.71
2019-02-27T07:12:23.216Z,965.68
2019-02-27T07:13:23.199Z,965.69
2019-02-27T07:14:23.180Z,965.73
2019-02-27T07:15:23.161Z,965.74
2019-02-27T07:16:23.755Z,965.68
2019-02-27T07:17:23.125Z,965.72
2019-02-27T07:18:23.108Z,965.71
2019-02-27T07:19:23.091Z,965.69
2019-02-27T07:20:24.317Z,965.69
2019-02-27T07:21:23.055Z,965.73
2019-02-27T07:22:23.037Z,965.7
2019-02-27T07:23:23.793Z,965.72
2019-02-27T07:24:23.002Z,965.7
2019-02-27T07:25:22.994Z,965.71
2019-02-27T07:26:22.966Z,965.74
2019-02-27T07:27:22.948Z,965.68
2019-02-27T07:28:22.931Z,965.71
2019-02-27T07:29:27.241Z,965.74
2019-02-27T07:30:23.794Z,965.74
2019-02-27T07:31:23.431Z,965.75
2019-02-27T07:32:22.862Z,965.73
2019-02-27T07:33:22.844Z,965.75
2019-02-27T07:34:22.826Z,965.73
2019-02-27T07:35:25.225Z,965.71
2019-02-27T07:36:22.794Z,965.69
2019-02-27T07:37:22.775Z,965.63
2019-02-27T07:38:22.757Z,965.67
2019-02-27T07:39:22.740Z,965.62
2019-02-27T07:40:22.723Z,965.61
2019-02-27T07:41:22.705Z,965.64
2019-02-27T07:42:22.688Z,965.62
2019-02-27T07:43:22.671Z,965.61
2019-02-27T07:44:22.654Z,965.64
2019-02-27T07:45:22.950Z,965.63
2019-02-27T07:46:23.037Z,965.63
2019-02-27T07:47:22.602Z,965.63
2019-02-27T07:48:22.586Z,965.66
2019-02-27T07:49:22.573Z,965.66
2019-02-27T07:50:22.552Z,965.6
2019-02-27T07:51:23.194Z,965.62
2019-02-27T07:52:22.518Z,965.62
2019-02-27T07:53:22.500Z,965.61
2019-02-27T07:54:22.483Z,965.7
2019-02-27T07:55:23.365Z,965.68
2019-02-27T07:56:22.449Z,965.68
2019-02-27T07:57:22.432Z,965.71
2019-02-27T07:58:22.417Z,965.7
2019-02-27T07:59:22.399Z,965.75
2019-02-27T08:00:22.381Z,965.75
2019-02-27T08:01:23.507Z,965.78
2019-02-27T08:02:22.349Z,965.79
2019-02-27T08:03:22.335Z,965.8
2019-02-27T08:04:22.953Z,965.79
2019-02-27T08:05:22.300Z,965.79
2019-02-27T08:06:23.589Z,965.82
2019-02-27T08:07:22.263Z,965.81
2019-02-27T08:08:23.583Z,965.86
2019-02-27T08:09:22.230Z,965.85
2019-02-27T08:10:22.214Z,965.86
2019-02-27T08:11:22.198Z,965.88
2019-02-27T08:12:22.190Z,965.89
2019-02-27T08:13:22.169Z,965.89
2019-02-27T08:14:22.150Z,965.84
2019-02-27T08:15:22.133Z,965.85
2019-02-27T08:16:22.691Z,965.82
2019-02-27T08:17:22.626Z,965.81
2019-02-27T08:18:29.693Z,965.78
2019-02-27T08:19:22.070Z,965.78
2019-02-27T08:20:22.057Z,965.81
2019-02-27T08:21:22.039Z,965.8
2019-02-27T08:22:23.938Z,965.8
2019-02-27T08:23:23.634Z,965.8
2019-02-27T08:24:22.428Z,965.75
2019-02-27T08:25:21.979Z,965.75
2019-02-27T08:26:21.962Z,965.75
2019-02-27T08:27:21.946Z,965.81
2019-02-27T08:28:21.934Z,965.77
2019-02-27T08:29:21.914Z,965.77
2019-02-27T08:30:21.907Z,965.74
2019-02-27T08:31:21.887Z,965.74
2019-02-27T08:32:21.876Z,965.73
2019-02-27T08:33:21.855Z,965.73
2019-02-27T08:34:21.839Z,965.69
2019-02-27T08:35:21.829Z,965.68
2019-02-27T08:36:21.811Z,965.67
2019-02-27T08:37:21.793Z,965.67
2019-02-27T08:38:23.487Z,965.64
2019-02-27T08:39:21.765Z,965.61
2019-02-27T08:40:23.997Z,965.59
2019-02-27T08:41:21.735Z,965.59
2019-02-27T08:42:21.722Z,965.56
2019-02-27T08:43:21.713Z,965.58
2019-02-27T08:44:21.693Z,965.61
2019-02-27T08:45:26.619Z,965.55
2019-02-27T08:46:21.663Z,965.57
2019-02-27T08:47:21.648Z,965.55
2019-02-27T08:48:21.633Z,965.58
2019-02-27T08:49:23.915Z,965.54
2019-02-27T08:50:21.606Z,965.55
2019-02-27T08:51:21.590Z,965.55
2019-02-27T08:52:21.576Z,965.58
2019-02-27T08:53:25.804Z,965.56
2019-02-27T08:54:21.548Z,965.55
2019-02-27T08:55:22.418Z,965.54
2019-02-27T08:56:21.519Z,965.55
2019-02-27T08:57:21.506Z,965.55
2019-02-27T08:58:21.494Z,965.53
2019-02-27T08:59:21.478Z,965.55
2019-02-27T09:00:23.134Z,965.53
2019-02-27T09:01:21.657Z,965.57
2019-02-27T09:02:21.442Z,965.56
2019-02-27T09:03:21.422Z,965.56
2019-02-27T09:04:21.408Z,965.51
2019-02-27T09:05:21.414Z,965.51
2019-02-27T09:06:21.381Z,965.49
2019-02-27T09:07:21.367Z,965.53
2019-02-27T09:08:21.353Z,965.52
2019-02-27T09:09:21.342Z,965.52
2019-02-27T09:10:23.105Z,965.46
2019-02-27T09:11:21.314Z,965.48
2019-02-27T09:12:21.302Z,965.47
2019-02-27T09:13:21.287Z,965.49
2019-02-27T09:14:21.272Z,965.46
2019-02-27T09:15:21.261Z,965.42
2019-02-27T09:16:22.978Z,965.4
2019-02-27T09:17:21.232Z,965.45
2019-02-27T09:18:22.882Z,965.41
2019-02-27T09:19:21.226Z,965.36
2019-02-27T09:20:21.197Z,965.34
2019-02-27T09:21:21.194Z,965.3
2019-02-27T09:22:21.168Z,965.24
2019-02-27T09:23:21.155Z,965.27
2019-02-27T09:24:21.144Z,965.24
2019-02-27T09:25:23.636Z,965.23
2019-02-27T09:26:21.115Z,965.24
2019-02-27T09:27:21.103Z,965.24
2019-02-27T09:28:21.089Z,965.19
2019-02-27T09:29:21.077Z,965.19
2019-02-27T09:30:21.066Z,965.2
2019-02-27T09:31:21.050Z,965.11
2019-02-27T09:32:21.038Z,965.15
2019-02-27T09:33:21.053Z,965.12
2019-02-27T09:34:21.075Z,965.13
2019-02-27T09:35:21.003Z,965.16
2019-02-27T09:36:20.989Z,965.12
2019-02-27T09:37:20.977Z,965.12
2019-02-27T09:38:24.022Z,965.12
2019-02-27T09:39:22.140Z,965.11
2019-02-27T09:40:20.940Z,965.13
2019-02-27T09:41:20.928Z,965.14
2019-02-27T09:42:20.915Z,965.13
2019-02-27T09:43:20.905Z,965.09
2019-02-27T09:44:20.892Z,965.11
2019-02-27T09:45:20.883Z,965.1
2019-02-27T09:46:20.870Z,965.12
2019-02-27T09:47:23.120Z,965.07
2019-02-27T09:48:20.844Z,965.08
2019-02-27T09:49:20.839Z,965.12
2019-02-27T09:50:20.821Z,965.11
2019-02-27T09:51:22.158Z,965.1
2019-02-27T09:52:20.799Z,965.1
2019-02-27T09:53:20.785Z,965.1
2019-02-27T09:54:20.775Z,965.1
2019-02-27T09:55:20.918Z,965.1
2019-02-27T09:56:20.755Z,965.05
2019-02-27T09:57:20.740Z,965.07
2019-02-27T09:58:22.515Z,965.05
2019-02-27T09:59:20.718Z,965.06
2019-02-27T10:00:20.754Z,965.04
2019-02-27T10:01:20.696Z,965.04
2019-02-27T10:02:20.684Z,965.05
2019-02-27T10:03:21.559Z,965.03
2019-02-27T10:04:20.661Z,965.04
2019-02-27T10:05:20.650Z,965.03
2019-02-27T10:06:20.640Z,964.98
2019-02-27T10:07:20.629Z,965.05
2019-02-27T10:08:20.617Z,965.01
2019-02-27T10:09:20.609Z,965.01
2019-02-27T10:10:20.600Z,964.99
2019-02-27T10:11:22.263Z,964.96
2019-02-27T10:12:20.574Z,964.95
2019-02-27T10:13:20.563Z,964.9
2019-02-27T10:14:20.553Z,964.89
2019-02-27T10:15:22.500Z,964.91
2019-02-27T10:16:20.533Z,964.9
2019-02-27T10:17:20.522Z,964.9
2019-02-27T10:18:22.042Z,964.91
2019-02-27T10:19:20.500Z,964.88
2019-02-27T10:20:20.491Z,964.88
2019-02-27T10:21:20.479Z,964.85
2019-02-27T10:22:21.165Z,964.84
2019-02-27T10:23:20.458Z,964.82
2019-02-27T10:24:20.448Z,964.76
2019-02-27T10:25:20.450Z,964.76
2019-02-27T10:26:22.548Z,964.79
2019-02-27T10:27:20.417Z,964.74
2019-02-27T10:28:20.407Z,964.71
2019-02-27T10:29:20.398Z,964.75
2019-02-27T10:30:20.391Z,964.72
2019-02-27T10:31:20.376Z,964.72
2019-02-27T10:32:20.368Z,964.7
2019-02-27T10:33:20.359Z,964.71
2019-02-27T10:34:20.348Z,964.71
2019-02-27T10:35:20.338Z,964.69
2019-02-27T10:36:20.328Z,964.67
2019-02-27T10:37:20.363Z,964.69
2019-02-27T10:38:20.313Z,964.67
2019-02-27T10:39:20.297Z,964.64
2019-02-27T10:40:20.291Z,964.68
2019-02-27T10:41:20.278Z,964.64
2019-02-27T10:42:20.268Z,964.64
2019-02-27T10:43:21.116Z,964.62
2019-02-27T10:44:20.251Z,964.65
2019-02-27T10:45:20.242Z,964.6
2019-02-27T10:46:23.409Z,964.55
2019-02-27T10:47:20.221Z,964.54
2019-02-27T10:48:20.211Z,964.54
2019-02-27T10:49:21.768Z,964.53
2019-02-27T10:50:20.193Z,964.56
2019-02-27T10:51:20.183Z,964.54
2019-02-27T10:52:23.911Z,964.51
2019-02-27T10:53:20.169Z,964.49
2019-02-27T10:54:20.155Z,964.46
2019-02-27T10:55:20.148Z,964.49
2019-02-27T10:56:21.572Z,964.49
2019-02-27T10:57:20.127Z,964.47
2019-02-27T10:58:20.118Z,964.48
2019-02-27T10:59:22.133Z,964.46
2019-02-27T11:00:20.099Z,964.43
2019-02-27T11:01:20.091Z,964.42
2019-02-27T11:02:20.083Z,964.38
2019-02-27T11:03:20.071Z,964.4
2019-02-27T11:04:20.064Z,964.38
2019-02-27T11:05:20.054Z,964.33
2019-02-27T11:06:20.044Z,964.35
2019-02-27T11:07:20.035Z,964.31
2019-02-27T11:08:20.030Z,964.28
2019-02-27T11:09:20.019Z,964.25
2019-02-27T11:10:21.690Z,964.24
2019-02-27T11:11:20.000Z,964.24
2019-02-27T11:12:19.991Z,964.27
2019-02-27T11:13:19.982Z,964.24
2019-02-27T11:14:19.977Z,964.25
2019-02-27T11:15:19.971Z,964.22
2019-02-27T11:16:21.256Z,964.24
2019-02-27T11:17:19.946Z,964.2
2019-02-27T11:18:19.937Z,964.22
2019-02-27T11:19:19.929Z,964.19
2019-02-27T11:20:20.802Z,964.23
2019-02-27T11:21:19.910Z,964.15
2019-02-27T11:22:19.902Z,964.16
2019-02-27T11:23:19.893Z,964.19
2019-02-27T11:24:19.885Z,964.12
2019-02-27T11:25:22.415Z,964.11
2019-02-27T11:26:19.866Z,964.09
2019-02-27T11:27:19.859Z,964.09
2019-02-27T11:28:19.850Z,964.13
2019-02-27T11:29:23.495Z,964.1
2019-02-27T11:30:19.834Z,964.07
2019-02-27T11:31:19.826Z,964.04
2019-02-27T11:32:22.864Z,964.01
2019-02-27T11:33:25.389Z,964.02
2019-02-27T11:34:19.798Z,963.99
2019-02-27T11:35:21.998Z,963.98
2019-02-27T11:36:19.779Z,963.99
2019-02-27T11:37:19.771Z,963.93
2019-02-27T11:38:24.127Z,963.91
2019-02-27T11:39:19.754Z,963.94
2019-02-27T11:40:19.746Z,963.92
2019-02-27T11:41:19.737Z,963.89
2019-02-27T11:42:19.729Z,963.89
2019-02-27T11:43:19.720Z,963.91
2019-02-27T11:44:19.711Z,963.83
2019-02-27T11:45:23.467Z,963.82
2019-02-27T11:46:19.696Z,963.8
2019-02-27T11:47:19.686Z,963.81
2019-02-27T11:48:20.276Z,963.77
2019-02-27T11:49:19.670Z,963.74
2019-02-27T11:50:19.661Z,963.78
2019-02-27T11:51:20.167Z,963.74
2019-02-27T11:52:19.645Z,963.7
2019-02-27T11:53:19.637Z,963.67
2019-02-27T11:54:19.628Z,963.64
2019-02-27T11:55:19.622Z,963.65
2019-02-27T11:56:20.221Z,963.62
2019-02-27T11:57:19.604Z,963.64
2019-02-27T11:58:19.595Z,963.61
2019-02-27T11:59:19.590Z,963.61
2019-02-27T12:00:21.011Z,963.58
2019-02-27T12:01:22.001Z,963.6
2019-02-27T12:02:19.562Z,963.55
2019-02-27T12:03:19.554Z,963.57
2019-02-27T12:04:20.079Z,963.54
2019-02-27T12:05:19.538Z,963.54
2019-02-27T12:06:19.530Z,963.54
2019-02-27T12:07:19.523Z,963.45
2019-02-27T12:08:19.515Z,963.41
2019-02-27T12:09:19.506Z,963.45
2019-02-27T12:10:19.500Z,963.44
2019-02-27T12:11:19.491Z,963.47
2019-02-27T12:12:22.344Z,963.4
2019-02-27T12:13:19.473Z,963.38
2019-02-27T12:14:19.465Z,963.36
2019-02-27T12:15:19.458Z,963.32
2019-02-27T12:16:19.449Z,963.35
2019-02-27T12:17:19.441Z,963.34
2019-02-27T12:18:19.434Z,963.36
2019-02-27T12:19:19.426Z,963.33
2019-02-27T12:20:19.420Z,963.32
2019-02-27T12:21:19.410Z,963.27
2019-02-27T12:22:19.403Z,963.27
2019-02-27T12:23:19.396Z,963.24
2019-02-27T12:24:19.613Z,963.21
2019-02-27T12:25:19.378Z,963.21
2019-02-27T12:26:19.370Z,963.18
2019-02-27T12:27:32.803Z,963.2
2019-02-27T12:28:19.355Z,963.12
2019-02-27T12:29:19.347Z,963.11
2019-02-27T12:30:19.338Z,963.12
2019-02-27T12:31:19.330Z,963.11